Time;durP1;ratioP1;P1;durP2;ratioP2;P2;SDS_P1;SDS_P2;PMS_P1;PMS_P2;Temp;Humidity;BMP_temperature;BMP_pressure;BME280_temperature;BME280_humidity;BME280_pressure;Samples;Min_cycle;Max_cycle;Signal;HPM_P1;HPM_P2
2022/05/22 00:02:10;;;;;;;0.10;0.10;;;9.70;99.90;;;;;;5072712;28;20051;-80
2022/05/22 00:04:37;;;;;;;0.00;0.00;;;9.70;99.90;;;;;;5073119;28;20076;-80
2022/05/22 00:07:07;;;;;;;0.00;0.00;;;9.60;99.90;;;;;;5089116;28;20734;-80
2022/05/22 00:09:35;;;;;;;0.10;0.10;;;9.60;99.90;;;;;;5106102;28;20083;-80
2022/05/22 00:12:05;;;;;;;0.20;0.20;;;9.60;99.90;;;;;;5072547;28;20036;-82
2022/05/22 00:14:32;;;;;;;0.10;0.10;;;9.60;99.90;;;;;;5089261;28;20043;-80
2022/05/22 00:16:59;;;;;;;0.63;0.20;;;9.50;99.90;;;;;;5088805;28;20410;-81
2022/05/22 00:19:27;;;;;;;0.03;0.03;;;9.50;99.90;;;;;;5072846;28;20033;-81
2022/05/22 00:21:54;;;;;;;0.10;0.10;;;9.50;99.90;;;;;;5088671;28;20040;-81
2022/05/22 00:24:23;;;;;;;0.00;0.00;;;9.50;99.90;;;;;;5089047;28;20040;-81
2022/05/22 00:26:50;;;;;;;0.10;0.10;;;9.40;99.90;;;;;;5088820;28;20040;-81
2022/05/22 00:29:18;;;;;;;0.43;0.20;;;9.50;99.90;;;;;;5076984;28;20519;-81
2022/05/22 00:31:45;;;;;;;0.10;0.10;;;9.70;99.90;;;;;;5105045;28;20056;-81
2022/05/22 00:34:12;;;;;;;0.20;0.20;;;9.40;99.90;;;;;;5072736;28;20041;-81
2022/05/22 00:36:39;;;;;;;0.63;0.47;;;9.40;99.90;;;;;;5055912;28;20040;-80
2022/05/22 00:39:06;;;;;;;0.40;0.30;;;9.40;99.90;;;;;;5055604;28;20036;-80
2022/05/22 00:41:34;;;;;;;0.13;0.13;;;9.40;99.90;;;;;;5056068;28;20611;-81
2022/05/22 00:44:02;;;;;;;0.08;0.08;;;9.30;99.90;;;;;;5072086;28;20076;-80
2022/05/22 00:46:30;;;;;;;0.17;0.10;;;9.30;99.90;;;;;;5072517;28;20045;-80
2022/05/22 00:49:12;;;;;;;0.00;0.00;;;9.20;99.90;;;;;;5071748;28;20049;-81
2022/05/22 00:51:49;;;;;;;0.00;0.00;;;9.20;99.90;;;;;;5088585;28;20048;-80
2022/05/22 00:54:18;;;;;;;0.10;0.10;;;9.20;99.90;;;;;;5106106;28;20033;-80
2022/05/22 00:56:51;;;;;;;0.10;0.10;;;9.50;99.90;;;;;;5108465;28;20693;-80
2022/05/22 00:59:27;;;;;;;0.10;0.10;;;9.10;99.90;;;;;;5075791;28;20032;-80
2022/05/22 01:01:58;;;;;;;0.10;0.10;;;9.10;99.90;;;;;;5075180;28;20038;-80
2022/05/22 01:04:28;;;;;;;0.05;0.05;;;9.00;99.90;;;;;;5092451;28;20060;-81
2022/05/22 01:06:55;;;;;;;0.10;0.10;;;9.00;99.90;;;;;;5109021;28;20076;-80
2022/05/22 01:09:22;;;;;;;0.10;0.10;;;9.10;99.90;;;;;;5058744;28;20449;-81
2022/05/22 01:11:51;;;;;;;0.17;0.17;;;9.00;99.90;;;;;;5091778;28;20047;-81
2022/05/22 01:14:22;;;;;;;0.10;0.10;;;9.00;99.90;;;;;;5108844;28;20111;-81
2022/05/22 01:16:50;;;;;;;0.20;0.20;;;8.90;99.90;;;;;;5108551;28;20036;-80
2022/05/22 01:19:21;;;;;;;0.10;0.10;;;8.90;99.90;;;;;;5092166;28;20394;-80
2022/05/22 01:21:52;;;;;;;0.20;0.20;;;8.90;99.90;;;;;;5091482;28;20451;-81
2022/05/22 01:24:20;;;;;;;0.10;0.10;;;8.90;99.90;;;;;;5075837;28;20059;-81
2022/05/22 01:26:48;;;;;;;0.20;0.20;;;8.80;99.90;;;;;;5091749;28;20523;-81
2022/05/22 01:29:16;;;;;;;0.10;0.10;;;8.80;99.90;;;;;;5079513;28;20119;-81
2022/05/22 01:31:42;;;;;;;0.20;0.20;;;8.80;99.90;;;;;;5074690;28;20108;-80
2022/05/22 01:34:10;;;;;;;0.10;0.10;;;8.90;99.90;;;;;;5058392;28;20098;-80
2022/05/22 01:36:37;;;;;;;0.10;0.10;;;8.70;99.90;;;;;;5075093;28;20123;-80
2022/05/22 01:39:05;;;;;;;0.15;0.15;;;8.70;99.90;;;;;;5064888;28;20047;-81
2022/05/22 01:41:31;;;;;;;0.20;0.20;;;8.70;99.90;;;;;;5075087;28;20137;-81
2022/05/22 01:43:58;;;;;;;0.28;0.20;;;8.60;99.90;;;;;;5074744;28;20078;-81
2022/05/22 01:46:25;;;;;;;0.10;0.10;;;8.60;99.90;;;;;;5074739;28;20089;-81
2022/05/22 01:48:52;;;;;;;0.10;0.10;;;8.50;99.90;;;;;;5070582;28;20114;-81
2022/05/22 01:51:19;;;;;;;0.10;0.10;;;8.60;99.90;;;;;;5090893;28;20793;-81
2022/05/22 01:53:46;;;;;;;0.10;0.10;;;8.50;99.90;;;;;;5080951;28;20414;-81
2022/05/22 01:56:13;;;;;;;0.08;0.08;;;8.50;99.90;;;;;;5074241;28;20043;-80
2022/05/22 01:58:40;;;;;;;0.10;0.10;;;8.50;99.90;;;;;;5091682;28;20045;-80
2022/05/22 02:01:08;;;;;;;0.15;0.15;;;8.50;99.90;;;;;;5073820;28;20485;-81
2022/05/22 02:03:35;;;;;;;0.10;0.10;;;8.40;99.90;;;;;;5090963;28;20090;-81
2022/05/22 02:06:02;;;;;;;0.10;0.10;;;8.40;99.90;;;;;;5090815;28;20036;-80
2022/05/22 02:08:28;;;;;;;0.10;0.10;;;8.50;99.90;;;;;;5074554;28;20097;-80
2022/05/22 02:10:59;;;;;;;0.20;0.20;;;8.30;99.90;;;;;;5057188;28;20485;-81
2022/05/22 02:13:29;;;;;;;0.22;0.20;;;8.40;99.90;;;;;;5090747;28;20036;-81
2022/05/22 02:15:56;;;;;;;0.10;0.10;;;8.30;99.90;;;;;;5090702;28;20084;-80
2022/05/22 02:18:23;;;;;;;0.10;0.10;;;8.30;99.90;;;;;;5057861;28;20483;-82
2022/05/22 02:20:50;;;;;;;0.10;0.10;;;8.30;99.90;;;;;;5057376;28;20127;-81
2022/05/22 02:23:18;;;;;;;0.30;0.22;;;8.70;99.90;;;;;;5073867;28;20160;-81
2022/05/22 02:25:48;;;;;;;0.20;0.20;;;8.30;99.90;;;;;;5074178;28;20052;-80
2022/05/22 02:28:17;;;;;;;0.13;0.13;;;8.20;99.90;;;;;;5074315;28;20048;-80
2022/05/22 02:30:50;;;;;;;0.28;0.28;;;8.20;99.90;;;;;;5073683;28;20047;-81
2022/05/22 02:33:17;;;;;;;0.10;0.10;;;8.20;99.90;;;;;;5073792;28;20110;-81
2022/05/22 02:35:44;;;;;;;0.10;0.10;;;8.20;99.90;;;;;;5057726;28;20181;-81
2022/05/22 02:38:11;;;;;;;0.10;0.10;;;8.20;99.90;;;;;;5057274;28;20123;-80
2022/05/22 02:40:38;;;;;;;0.30;0.30;;;8.20;99.90;;;;;;5090592;28;20043;-81
2022/05/22 02:43:07;;;;;;;0.10;0.10;;;8.20;99.90;;;;;;5090422;28;20041;-81
2022/05/22 02:45:36;;;;;;;0.20;0.20;;;8.10;99.90;;;;;;5057087;28;20068;-80
2022/05/22 02:48:03;;;;;;;0.10;0.10;;;8.10;99.90;;;;;;5106356;28;20047;-81
2022/05/22 02:50:31;;;;;;;0.20;0.20;;;8.10;99.90;;;;;;5056979;28;20040;-80
2022/05/22 02:52:58;;;;;;;0.43;0.22;;;8.30;99.90;;;;;;5056769;28;20516;-80
2022/05/22 02:55:25;;;;;;;0.10;0.10;;;8.10;99.90;;;;;;5057111;28;20125;-80
2022/05/22 02:57:52;;;;;;;1.65;0.45;;;8.10;99.90;;;;;;5073295;28;20406;-80
2022/05/22 03:00:25;;;;;;;0.10;0.10;;;8.50;99.90;;;;;;5073006;28;20056;-81
2022/05/22 03:02:53;;;;;;;0.20;0.20;;;8.10;99.90;;;;;;5077552;28;20028;-81
2022/05/22 03:05:20;;;;;;;0.10;0.10;;;8.10;99.90;;;;;;5089978;28;20040;-82
2022/05/22 03:07:47;;;;;;;0.10;0.10;;;8.00;99.90;;;;;;5073661;28;20053;-81
2022/05/22 03:10:17;;;;;;;0.25;0.10;;;8.00;99.90;;;;;;5056091;28;20041;-81
2022/05/22 03:12:44;;;;;;;0.17;0.17;;;8.00;99.90;;;;;;5056299;28;20036;-80
2022/05/22 03:15:12;;;;;;;0.20;0.20;;;8.00;99.90;;;;;;5089405;28;20040;-81
2022/05/22 03:17:39;;;;;;;0.10;0.10;;;8.00;99.90;;;;;;5105697;28;20140;-80
2022/05/22 03:20:06;;;;;;;0.10;0.10;;;7.90;99.90;;;;;;5089449;28;20131;-80
2022/05/22 03:22:33;;;;;;;0.10;0.10;;;8.00;99.90;;;;;;5089653;28;20472;-82
2022/05/22 03:25:00;;;;;;;0.10;0.10;;;8.00;99.90;;;;;;5056901;28;20190;-80
2022/05/22 03:27:27;;;;;;;0.10;0.10;;;7.90;99.90;;;;;;5072908;28;20052;-82
2022/05/22 03:29:54;;;;;;;0.10;0.10;;;8.00;99.90;;;;;;5088533;28;20044;-81
2022/05/22 03:32:21;;;;;;;0.10;0.10;;;8.00;99.90;;;;;;5088924;28;20045;-81
2022/05/22 03:34:48;;;;;;;0.10;0.10;;;8.00;99.90;;;;;;5082460;28;20051;-80
2022/05/22 03:37:15;;;;;;;0.20;0.20;;;8.00;99.90;;;;;;5088976;28;20090;-81
2022/05/22 03:39:42;;;;;;;0.20;0.20;;;8.10;99.90;;;;;;5089504;28;20036;-81
2022/05/22 03:42:10;;;;;;;0.28;0.28;;;8.10;99.90;;;;;;5072045;28;20110;-80
2022/05/22 03:44:37;;;;;;;0.17;0.17;;;8.10;99.90;;;;;;5089136;28;20054;-81
2022/05/22 03:47:05;;;;;;;0.10;0.10;;;8.10;99.90;;;;;;5072817;28;20032;-81
2022/05/22 03:49:32;;;;;;;0.20;0.20;;;8.10;99.90;;;;;;5089190;28;20489;-80
2022/05/22 03:51:59;;;;;;;0.45;0.20;;;8.10;99.90;;;;;;5072526;28;20535;-82
2022/05/22 03:54:26;;;;;;;0.20;0.20;;;8.10;99.90;;;;;;5062307;28;20102;-80
2022/05/22 03:56:54;;;;;;;0.10;0.10;;;8.20;99.90;;;;;;5072577;28;20106;-81
2022/05/22 03:59:21;;;;;;;0.20;0.20;;;8.10;99.90;;;;;;5055882;28;20036;-81
2022/05/22 04:01:47;;;;;;;0.10;0.10;;;8.20;99.90;;;;;;5072564;28;20135;-80
2022/05/22 04:04:14;;;;;;;0.40;0.30;;;8.20;99.90;;;;;;5087276;28;20040;-80
2022/05/22 04:06:41;;;;;;;0.10;0.10;;;8.20;99.90;;;;;;5055960;28;20123;-80
2022/05/22 04:09:08;;;;;;;0.10;0.10;;;8.20;99.90;;;;;;5055998;28;20044;-81
2022/05/22 04:11:38;;;;;;;0.10;0.10;;;8.20;99.90;;;;;;5056054;28;20040;-80
2022/05/22 04:14:05;;;;;;;0.20;0.20;;;8.30;99.90;;;;;;5077527;28;20036;-81
2022/05/22 04:16:31;;;;;;;0.57;0.45;;;8.30;99.90;;;;;;5055750;28;20036;-81
2022/05/22 04:18:58;;;;;;;0.10;0.10;;;8.20;99.90;;;;;;5055880;28;20037;-81
2022/05/22 04:21:25;;;;;;;0.32;0.32;;;8.30;99.90;;;;;;5088982;28;20051;-80
2022/05/22 04:26:36;;;;;;;0.10;0.10;;;8.40;99.90;;;;;;5091190;28;20055;-82
2022/05/22 04:29:03;;;;;;;0.08;0.08;;;8.50;99.90;;;;;;5056374;28;20040;-80
2022/05/22 04:31:30;;;;;;;0.20;0.20;;;8.50;99.90;;;;;;5059150;28;20044;-80
2022/05/22 04:33:57;;;;;;;0.30;0.30;;;8.50;99.90;;;;;;5092425;28;20643;-81
2022/05/22 04:36:23;;;;;;;0.20;0.20;;;8.70;99.90;;;;;;5075722;28;20075;-82
2022/05/22 04:38:50;;;;;;;0.15;0.15;;;8.70;99.90;;;;;;5092315;28;20041;-80
2022/05/22 04:41:17;;;;;;;0.20;0.20;;;8.80;99.90;;;;;;5069687;28;20091;-82
2022/05/22 04:43:44;;;;;;;0.20;0.20;;;8.90;99.90;;;;;;5059062;28;20044;-80
2022/05/22 04:46:10;;;;;;;0.15;0.15;;;9.00;99.90;;;;;;5059335;28;20033;-81
2022/05/22 04:48:37;;;;;;;0.10;0.10;;;9.00;99.90;;;;;;5073220;28;20093;-82
2022/05/22 04:51:04;;;;;;;0.10;0.10;;;9.10;99.90;;;;;;5065154;28;20115;-82
2022/05/22 04:53:31;;;;;;;0.25;0.20;;;9.20;99.90;;;;;;5099684;28;20098;-80
2022/05/22 04:55:58;;;;;;;0.20;0.20;;;9.20;99.90;;;;;;5069293;28;20029;-82
2022/05/22 04:58:25;;;;;;;0.03;0.03;;;9.30;99.90;;;;;;5092350;28;20032;-80
2022/05/22 05:00:53;;;;;;;0.20;0.20;;;9.40;99.90;;;;;;5059101;28;20414;-80
2022/05/22 05:03:19;;;;;;;0.17;0.17;;;9.40;99.90;;;;;;5088293;28;20036;-80
2022/05/22 05:05:55;;;;;;;0.30;0.20;;;9.50;99.90;;;;;;5055375;28;20044;-80
2022/05/22 05:08:22;;;;;;;0.20;0.20;;;9.50;99.90;;;;;;5071467;28;20044;-82
2022/05/22 05:10:51;;;;;;;0.20;0.20;;;9.60;99.90;;;;;;5039509;28;20045;-81
2022/05/22 05:13:19;;;;;;;0.10;0.10;;;9.60;99.90;;;;;;5055436;28;20120;-80
2022/05/22 05:15:46;;;;;;;0.10;0.10;;;9.70;99.90;;;;;;5091306;28;20040;-81
2022/05/22 05:18:13;;;;;;;0.10;0.10;;;9.70;99.90;;;;;;5075588;28;20037;-80
2022/05/22 05:20:42;;;;;;;0.75;0.20;;;9.70;99.90;;;;;;5058534;28;20078;-80
2022/05/22 05:23:09;;;;;;;0.10;0.10;;;10.10;99.90;;;;;;5075338;28;20139;-82
2022/05/22 05:25:36;;;;;;;0.10;0.10;;;9.80;99.90;;;;;;5075158;28;20472;-80
2022/05/22 05:28:02;;;;;;;0.10;0.10;;;9.90;99.90;;;;;;5091579;28;20406;-80
2022/05/22 05:30:29;;;;;;;0.08;0.08;;;9.90;99.90;;;;;;5074440;28;20037;-81
2022/05/22 05:32:56;;;;;;;0.20;0.20;;;10.00;99.90;;;;;;5074892;28;20067;-81
2022/05/22 05:35:23;;;;;;;0.10;0.10;;;10.00;99.90;;;;;;5091258;28;20494;-80
2022/05/22 05:37:51;;;;;;;0.30;0.20;;;10.10;99.90;;;;;;5074863;28;20090;-81
2022/05/22 05:40:18;;;;;;;0.10;0.10;;;10.20;99.90;;;;;;5091124;28;20044;-82
2022/05/22 05:42:45;;;;;;;0.20;0.10;;;10.20;99.90;;;;;;5091417;28;20425;-82
2022/05/22 05:45:13;;;;;;;0.10;0.10;;;10.30;99.90;;;;;;5074381;28;20036;-81
2022/05/22 05:47:40;;;;;;;0.20;0.20;;;10.40;99.90;;;;;;5044332;28;20130;-82
2022/05/22 05:50:07;;;;;;;0.03;0.03;;;10.40;99.90;;;;;;5058382;28;20118;-82
2022/05/22 05:52:34;;;;;;;0.10;0.10;;;10.40;99.90;;;;;;5057969;28;20068;-82
2022/05/22 05:55:02;;;;;;;0.10;0.10;;;10.50;99.90;;;;;;5074853;28;20068;-82
2022/05/22 05:57:29;;;;;;;0.10;0.10;;;10.60;99.90;;;;;;5074116;28;20094;-80
2022/05/22 05:59:56;;;;;;;0.40;0.20;;;10.60;99.90;;;;;;5091137;28;20449;-80
2022/05/22 06:02:23;;;;;;;0.00;0.00;;;10.70;99.90;;;;;;5057851;28;20048;-82
2022/05/22 06:04:50;;;;;;;0.28;0.20;;;10.80;99.90;;;;;;5090833;28;20041;-81
2022/05/22 06:07:17;;;;;;;0.17;0.17;;;10.90;99.90;;;;;;5084268;28;20041;-81
2022/05/22 06:09:43;;;;;;;0.08;0.08;;;10.90;99.90;;;;;;5051136;28;20901;-81
2022/05/22 06:12:10;;;;;;;0.32;0.22;;;11.00;99.90;;;;;;5099655;28;20048;-81
2022/05/22 06:14:37;;;;;;;0.10;0.10;;;11.10;99.90;;;;;;5073882;28;20048;-81
2022/05/22 06:17:04;;;;;;;0.05;0.05;;;11.10;99.90;;;;;;5073951;28;20044;-81
2022/05/22 06:22:17;;;;;;;0.13;0.10;;;11.30;99.90;;;;;;5073114;28;20110;-82
2022/05/22 06:24:43;;;;;;;0.32;0.32;;;11.40;99.90;;;;;;5083288;28;20044;-81
2022/05/22 06:27:10;;;;;;;0.13;0.13;;;11.50;99.90;;;;;;5057062;28;20036;-82
2022/05/22 06:29:38;;;;;;;0.08;0.08;;;11.60;99.90;;;;;;5042958;28;20036;-82
2022/05/22 06:32:06;;;;;;;0.10;0.10;;;11.70;99.90;;;;;;5063693;28;20477;-82
2022/05/22 06:34:34;;;;;;;0.03;0.03;;;11.80;99.90;;;;;;5084206;28;20468;-80
2022/05/22 06:37:03;;;;;;;0.10;0.10;;;11.90;99.90;;;;;;5066427;28;20068;-81
2022/05/22 06:42:30;;;;;;;0.03;0.03;;;12.00;99.90;;;;;;5090077;28;20040;-81
2022/05/22 06:45:03;;;;;;;0.30;0.10;;;12.10;99.90;;;;;;5065054;28;20512;-80
2022/05/22 06:47:31;;;;;;;0.10;0.10;;;12.20;99.90;;;;;;5077695;28;20052;-81
2022/05/22 06:49:58;;;;;;;0.10;0.10;;;12.30;99.90;;;;;;5073691;28;20040;-80
2022/05/22 06:52:25;;;;;;;0.00;0.00;;;12.40;99.90;;;;;;5061854;28;20091;-82
2022/05/22 06:54:52;;;;;;;0.45;0.20;;;12.50;99.90;;;;;;5089836;28;20041;-82
2022/05/22 06:57:20;;;;;;;0.13;0.13;;;12.50;99.90;;;;;;5073426;28;20115;-81
2022/05/22 06:59:48;;;;;;;0.10;0.10;;;12.60;99.90;;;;;;5082909;28;20040;-82
2022/05/22 07:02:16;;;;;;;0.05;0.05;;;12.70;99.90;;;;;;5065422;28;20540;-81
2022/05/22 07:04:43;;;;;;;0.10;0.10;;;12.80;99.90;;;;;;5065884;28;20044;-80
2022/05/22 07:07:10;;;;;;;0.10;0.10;;;12.90;99.90;;;;;;5099865;28;20047;-81
2022/05/22 07:09:37;;;;;;;0.17;0.17;;;13.00;99.90;;;;;;5072534;28;20040;-83
2022/05/22 07:12:10;;;;;;;0.10;0.10;;;13.10;99.90;;;;;;5072555;28;20056;-82
2022/05/22 07:14:37;;;;;;;0.15;0.15;;;13.20;99.90;;;;;;5072671;28;20041;-82
2022/05/22 07:17:05;;;;;;;0.22;0.22;;;13.30;99.90;;;;;;5062054;28;20036;-84
2022/05/22 07:19:37;;;;;;;0.10;0.10;;;13.40;99.90;;;;;;5089045;28;20032;-82
2022/05/22 07:22:06;;;;;;;0.28;0.22;;;13.50;99.90;;;;;;5073374;28;20127;-83
2022/05/22 07:24:34;;;;;;;0.10;0.10;;;13.60;99.90;;;;;;5072474;28;20048;-83
2022/05/22 07:27:00;;;;;;;0.20;0.20;;;13.70;99.90;;;;;;5070867;28;20041;-82
2022/05/22 07:29:28;;;;;;;0.20;0.20;;;13.80;99.90;;;;;;5066850;28;20493;-83
2022/05/22 07:31:56;;;;;;;0.22;0.20;;;13.90;99.90;;;;;;5088359;28;20056;-83
2022/05/22 07:34:25;;;;;;;0.08;0.08;;;14.00;99.90;;;;;;5072371;28;20037;-83
2022/05/22 07:37:01;;;;;;;0.10;0.10;;;14.20;99.90;;;;;;5088574;28;20127;-83
2022/05/22 07:39:28;;;;;;;0.05;0.05;;;14.40;99.90;;;;;;5072500;28;20048;-83
2022/05/22 07:41:55;;;;;;;0.50;0.20;;;14.50;99.90;;;;;;5072315;28;20040;-83
2022/05/22 07:44:22;;;;;;;0.25;0.20;;;14.60;99.90;;;;;;5071679;28;20127;-81
2022/05/22 07:46:49;;;;;;;0.20;0.17;;;14.70;99.90;;;;;;5067583;28;20039;-83
2022/05/22 07:52:10;;;;;;;0.10;0.10;;;14.80;99.90;;;;;;5077167;28;20455;-82
2022/05/22 07:54:40;;;;;;;0.20;0.20;;;14.80;99.90;;;;;;5083579;28;20199;-80
2022/05/22 07:57:07;;;;;;;0.10;0.10;;;14.80;99.90;;;;;;5088349;28;20072;-81
2022/05/22 07:59:38;;;;;;;0.10;0.10;;;14.70;99.90;;;;;;5084795;28;20663;-81
2022/05/22 08:02:08;;;;;;;0.25;0.13;;;14.70;99.90;;;;;;5063028;28;20040;-80
2022/05/22 08:04:35;;;;;;;0.57;0.30;;;14.60;99.90;;;;;;5086672;28;20508;-80
2022/05/22 08:07:02;;;;;;;0.22;0.10;;;14.70;99.90;;;;;;5064739;28;20079;-81
2022/05/22 08:09:28;;;;;;;0.40;0.22;;;14.80;99.90;;;;;;5061992;28;20039;-81
2022/05/22 08:11:55;;;;;;;0.20;0.20;;;14.90;99.90;;;;;;5056136;28;20450;-81
2022/05/22 08:14:22;;;;;;;0.10;0.10;;;15.10;99.90;;;;;;5039295;28;20036;-80
2022/05/22 08:16:48;;;;;;;0.10;0.10;;;15.30;99.90;;;;;;5070471;28;20045;-81
2022/05/22 08:19:15;;;;;;;0.20;0.17;;;15.50;99.90;;;;;;5044882;28;20043;-81
2022/05/22 08:21:42;;;;;;;0.20;0.20;;;15.70;99.90;;;;;;5077498;28;20496;-81
2022/05/22 08:24:09;;;;;;;0.20;0.17;;;15.60;99.90;;;;;;5086919;28;20134;-80
2022/05/22 08:26:37;;;;;;;0.10;0.10;;;15.60;99.90;;;;;;5048735;28;20036;-81
2022/05/22 08:29:04;;;;;;;0.30;0.20;;;15.50;99.90;;;;;;5057515;28;20097;-81
2022/05/22 08:31:31;;;;;;;0.20;0.20;;;15.60;99.90;;;;;;5059314;28;20052;-80
2022/05/22 08:33:57;;;;;;;0.10;0.10;;;15.80;99.90;;;;;;5073577;28;20051;-80
2022/05/22 08:36:25;;;;;;;0.55;0.20;;;15.80;99.90;;;;;;5063284;28;20421;-80
2022/05/22 08:38:51;;;;;;;0.20;0.20;;;15.70;99.90;;;;;;5100086;28;20529;-81
2022/05/22 08:41:30;;;;;;;0.25;0.22;;;15.70;99.90;;;;;;5092445;28;20178;-82
2022/05/22 08:44:37;;;;;;;0.10;0.10;;;15.80;99.90;;;;;;5108116;28;20051;-81
2022/05/22 08:47:03;;;;;;;0.20;0.20;;;15.90;99.90;;;;;;5103608;28;20394;-81
2022/05/22 08:49:35;;;;;;;0.20;0.20;;;16.20;99.90;;;;;;5078116;28;20100;-80
2022/05/22 08:52:17;;;;;;;0.35;0.25;;;16.20;99.90;;;;;;5092574;28;20116;-81
2022/05/22 08:54:50;;;;;;;0.13;0.10;;;16.40;99.90;;;;;;5083756;28;20064;-81
2022/05/22 09:00:10;;;;;;;0.93;0.52;;;16.90;99.90;;;;;;5091581;28;20778;-81
2022/05/22 09:02:41;;;;;;;0.30;0.30;;;16.90;99.90;;;;;;5058883;28;20044;-81
2022/05/22 09:05:11;;;;;;;0.13;0.13;;;16.70;99.90;;;;;;5071532;28;20472;-78
2022/05/22 09:07:44;;;;;;;0.20;0.13;;;16.40;99.90;;;;;;5088794;28;20125;-78
2022/05/22 09:10:16;;;;;;;0.32;0.20;;;16.10;99.90;;;;;;5090187;28;20044;-79
2022/05/22 09:13:25;;;;;;;0.08;0.08;;;16.00;99.90;;;;;;5088507;28;20549;-78
2022/05/22 09:16:08;;;;;;;0.10;0.10;;;15.90;99.90;;;;;;5089294;28;20486;-79
2022/05/22 09:19:18;;;;;;;0.22;0.13;;;16.10;99.90;;;;;;5080293;28;20093;-79
2022/05/22 09:22:05;;;;;;;0.08;0.08;;;16.50;99.90;;;;;;5044828;28;20131;-78
2022/05/22 09:24:47;;;;;;;0.10;0.10;;;16.60;99.90;;;;;;5074961;28;20036;-78
2022/05/22 09:27:13;;;;;;;0.15;0.15;;;16.70;99.90;;;;;;5091341;28;20040;-79
2022/05/22 09:29:55;;;;;;;0.28;0.10;;;16.90;99.90;;;;;;5093960;28;20043;-79
2022/05/22 09:33:00;;;;;;;0.20;0.10;;;17.00;99.90;;;;;;5068317;28;20048;-79
2022/05/22 09:35:45;;;;;;;0.68;0.40;;;17.00;99.90;;;;;;5004158;28;20099;-79
2022/05/22 09:38:24;;;;;;;0.10;0.10;;;16.90;99.90;;;;;;5093050;28;20485;-79
2022/05/22 09:41:03;;;;;;;0.13;0.13;;;16.90;99.90;;;;;;5103213;28;20037;-79
2022/05/22 09:43:47;;;;;;;0.35;0.32;;;17.10;99.90;;;;;;5074269;28;20044;-79
2022/05/22 09:46:26;;;;;;;0.30;0.20;;;17.20;99.90;;;;;;5076185;28;20040;-79
2022/05/22 09:49:10;;;;;;;0.35;0.32;;;17.40;99.90;;;;;;5101091;28;20040;-79
2022/05/22 09:52:17;;;;;;;0.30;0.30;;;17.70;99.90;;;;;;5086095;28;20211;-80
2022/05/22 09:55:16;;;;;;;0.60;0.32;;;17.80;99.90;;;;;;5107518;28;20561;-79
2022/05/22 09:58:10;;;;;;;0.15;0.10;;;17.80;99.90;;;;;;5090363;28;20404;-79
2022/05/22 10:00:49;;;;;;;0.10;0.10;;;17.90;99.90;;;;;;5092126;28;20053;-79
2022/05/22 10:03:25;;;;;;;1.48;0.50;;;18.10;99.90;;;;;;5077082;28;20068;-79
2022/05/22 10:06:19;;;;;;;0.10;0.10;;;18.30;99.90;;;;;;5104780;28;20440;-79
2022/05/22 10:09:11;;;;;;;0.17;0.17;;;18.30;99.90;;;;;;5075205;28;20046;-80
2022/05/22 10:12:21;;;;;;;0.08;0.08;;;18.40;99.90;;;;;;5090340;28;20044;-79
2022/05/22 10:14:47;;;;;;;0.10;0.10;;;18.50;99.90;;;;;;5049217;28;20055;-81
2022/05/22 10:17:28;;;;;;;0.28;0.20;;;18.70;99.90;;;;;;5078427;28;20033;-82
2022/05/22 10:20:39;;;;;;;0.20;0.20;;;18.90;99.90;;;;;;5074515;28;20036;-87
2022/05/22 10:23:33;;;;;;;0.20;0.20;;;19.00;99.90;;;;;;5087015;28;20048;-85
2022/05/22 10:26:21;;;;;;;0.05;0.05;;;19.00;99.90;;;;;;5071041;28;20048;-85
2022/05/22 10:29:22;;;;;;;0.17;0.10;;;19.00;99.90;;;;;;5090022;28;20040;-82
2022/05/22 10:31:54;;;;;;;0.20;0.20;;;18.90;99.90;;;;;;5062436;28;20051;-82
2022/05/22 10:34:43;;;;;;;0.55;0.28;;;18.70;99.90;;;;;;5089908;28;20048;-81
2022/05/22 10:37:25;;;;;;;0.25;0.15;;;18.60;99.90;;;;;;5089797;28;20520;-83
2022/05/22 10:39:52;;;;;;;0.20;0.20;;;18.40;99.90;;;;;;5106497;28;20059;-81
2022/05/22 10:42:45;;;;;;;0.10;0.10;;;18.20;99.90;;;;;;5052348;28;20048;-82
2022/05/22 10:45:21;;;;;;;0.95;0.30;;;18.10;99.90;;;;;;5069811;28;20127;-81
2022/05/22 10:47:49;;;;;;;0.45;0.30;;;18.00;99.90;;;;;;5086332;28;20098;-81
2022/05/22 10:50:26;;;;;;;0.28;0.25;;;18.10;99.90;;;;;;5073445;28;20065;-81
2022/05/22 10:52:53;;;;;;;0.22;0.22;;;18.20;99.90;;;;;;5074587;28;20044;-82
2022/05/22 10:56:00;;;;;;;0.25;0.25;;;18.40;99.90;;;;;;5073351;28;20123;-81
2022/05/22 10:58:30;;;;;;;0.10;0.10;;;18.50;99.90;;;;;;4974247;28;20097;-82
2022/05/22 11:01:16;;;;;;;0.10;0.10;;;18.50;99.90;;;;;;4989576;28;20061;-81
2022/05/22 11:03:43;;;;;;;0.20;0.20;;;18.60;99.90;;;;;;5049444;28;20064;-83
2022/05/22 11:06:20;;;;;;;0.10;0.10;;;18.80;99.90;;;;;;5055981;28;20048;-81
2022/05/22 11:08:50;;;;;;;0.20;0.10;;;18.90;99.90;;;;;;5088907;28;20052;-82
2022/05/22 11:11:24;;;;;;;0.30;0.13;;;19.10;99.90;;;;;;5072073;28;20055;-84
2022/05/22 11:13:51;;;;;;;0.17;0.10;;;19.30;99.90;;;;;;5056305;28;20119;-83
2022/05/22 11:16:28;;;;;;;1.50;0.38;;;19.60;99.90;;;;;;5039814;28;20036;-81
2022/05/22 11:19:11;;;;;;;0.10;0.10;;;19.70;99.90;;;;;;5088450;28;20086;-82
2022/05/22 11:21:59;;;;;;;0.20;0.20;;;19.90;99.90;;;;;;5072850;28;20044;-82
2022/05/22 11:24:42;;;;;;;0.40;0.30;;;19.80;99.90;;;;;;5089467;28;20132;-83
2022/05/22 11:27:48;;;;;;;0.32;0.28;;;19.50;99.90;;;;;;5073025;28;20041;-83
2022/05/22 11:30:36;;;;;;;0.80;0.43;;;19.30;99.90;;;;;;5072978;28;20435;-83
2022/05/22 11:33:07;;;;;;;0.20;0.20;;;19.20;99.90;;;;;;5089150;28;20052;-83
2022/05/22 11:35:54;;;;;;;0.13;0.10;;;19.40;99.90;;;;;;5089483;28;20045;-82
2022/05/22 11:38:49;;;;;;;0.15;0.15;;;19.70;99.90;;;;;;5085640;28;20037;-82
2022/05/22 11:41:35;;;;;;;1.15;0.43;;;19.80;99.90;;;;;;5069130;28;20044;-83
2022/05/22 11:44:27;;;;;;;0.00;0.00;;;19.80;99.90;;;;;;5052604;28;20044;-82
2022/05/22 11:47:32;;;;;;;0.15;0.15;;;20.10;99.90;;;;;;5052541;28;20040;-82
2022/05/22 11:50:32;;;;;;;0.20;0.20;;;20.20;99.90;;;;;;4992427;28;20092;-82
2022/05/22 11:53:17;;;;;;;0.08;0.08;;;20.40;99.90;;;;;;4992306;28;20043;-79
2022/05/22 11:56:08;;;;;;;0.32;0.20;;;20.40;99.90;;;;;;5058857;28;20817;-79
2022/05/22 11:58:40;;;;;;;0.38;0.38;;;20.50;99.90;;;;;;5088988;28;20036;-80
2022/05/22 12:01:28;;;;;;;0.10;0.10;;;20.40;99.90;;;;;;5088654;28;20051;-79
2022/05/22 12:04:22;;;;;;;0.73;0.40;;;20.40;99.90;;;;;;5072658;28;20044;-80
2022/05/22 12:06:49;;;;;;;0.13;0.13;;;20.40;99.90;;;;;;5072709;28;20076;-79
2022/05/22 12:09:37;;;;;;;0.10;0.10;;;20.20;99.90;;;;;;5088723;28;20079;-81
2022/05/22 12:12:18;;;;;;;0.13;0.13;;;20.00;99.90;;;;;;5088636;28;20090;-80
2022/05/22 12:14:45;;;;;;;1.13;0.30;;;19.70;99.90;;;;;;5105847;28;20045;-81
2022/05/22 12:17:36;;;;;;;0.40;0.30;;;19.50;99.90;;;;;;5072215;28;20041;-79
2022/05/22 12:20:15;;;;;;;0.20;0.20;;;19.40;99.90;;;;;;5072094;28;20037;-81
2022/05/22 12:23:12;;;;;;;0.10;0.10;;;19.10;99.90;;;;;;5072687;28;20045;-79
2022/05/22 12:25:43;;;;;;;0.22;0.20;;;18.90;99.90;;;;;;5072774;28;20048;-79
2022/05/22 12:28:30;;;;;;;0.17;0.17;;;18.70;99.90;;;;;;5074644;28;20516;-79
2022/05/22 12:30:59;;;;;;;0.13;0.13;;;18.70;99.90;;;;;;5068266;28;20052;-79
2022/05/22 12:33:33;;;;;;;0.10;0.10;;;18.70;99.90;;;;;;5068311;28;20053;-80
2022/05/22 12:36:02;;;;;;;0.30;0.30;;;18.70;99.90;;;;;;5068713;28;20084;-79
2022/05/22 12:38:29;;;;;;;0.10;0.10;;;18.60;99.90;;;;;;5069076;28;20041;-80
2022/05/22 12:41:24;;;;;;;0.08;0.08;;;18.60;99.90;;;;;;5036587;28;20051;-81
2022/05/22 12:43:55;;;;;;;0.30;0.30;;;18.70;99.90;;;;;;5078108;28;20091;-79
2022/05/22 12:46:23;;;;;;;0.13;0.13;;;18.90;99.90;;;;;;5068599;28;20036;-81
2022/05/22 12:49:01;;;;;;;0.20;0.15;;;19.30;99.90;;;;;;5068708;28;20540;-80
2022/05/22 12:51:34;;;;;;;0.10;0.10;;;19.40;99.90;;;;;;5056075;28;20068;-79
2022/05/22 12:54:22;;;;;;;0.20;0.20;;;19.60;99.90;;;;;;5072281;28;20106;-80
2022/05/22 12:56:50;;;;;;;0.10;0.10;;;19.70;99.90;;;;;;5088945;28;20036;-79
2022/05/22 12:59:17;;;;;;;0.10;0.10;;;19.90;99.90;;;;;;5072201;28;20041;-81
2022/05/22 13:01:46;;;;;;;0.13;0.13;;;19.80;99.90;;;;;;5071840;28;20498;-81
2022/05/22 13:04:15;;;;;;;0.03;0.03;;;19.90;99.90;;;;;;5055618;28;20494;-80
2022/05/22 13:06:51;;;;;;;0.57;0.30;;;20.00;99.90;;;;;;5072079;28;20037;-79
2022/05/22 13:09:38;;;;;;;1.02;0.47;;;20.00;99.90;;;;;;5071892;28;20040;-81
2022/05/22 13:12:08;;;;;;;0.10;0.10;;;20.00;99.90;;;;;;5071968;28;20417;-80
2022/05/22 13:14:41;;;;;;;0.20;0.20;;;20.00;99.90;;;;;;5088732;28;20489;-81
2022/05/22 13:17:11;;;;;;;0.00;0.00;;;19.90;99.90;;;;;;5071334;28;20550;-81
2022/05/22 13:19:52;;;;;;;0.10;0.10;;;19.90;99.90;;;;;;5072094;28;20045;-81
2022/05/22 13:22:30;;;;;;;0.17;0.17;;;20.00;99.90;;;;;;5071212;28;20037;-81
2022/05/22 13:24:57;;;;;;;0.32;0.28;;;19.80;99.90;;;;;;5088618;28;20048;-80
2022/05/22 13:27:36;;;;;;;0.63;0.30;;;19.70;99.90;;;;;;5088105;28;20040;-79
2022/05/22 13:30:07;;;;;;;0.55;0.30;;;19.60;99.90;;;;;;5088210;28;20037;-80
2022/05/22 13:33:05;;;;;;;0.20;0.20;;;19.60;99.90;;;;;;5071424;28;20045;-81